Time;durP1;ratioP1;P1;durP2;ratioP2;P2;SDS_P1;SDS_P2;PMS_P1;PMS_P2;Temp;Humidity;BMP_temperature;BMP_pressure;BME280_temperature;BME280_humidity;BME280_pressure;Samples;Min_cycle;Max_cycle;Signal;HPM_P1;HPM_P2
2023/09/17 00:00:12;;;;;;;16.50;11.43;;;;;;;;;;5108833;27;20079;-78
2023/09/17 00:02:38;;;;;;;19.98;13.43;;;;;;;;;;5125046;27;20039;-79
2023/09/17 00:05:04;;;;;;;15.98;11.90;;;;;;;;;;5109802;27;20137;-78
2023/09/17 00:07:30;;;;;;;24.65;15.65;;;;;;;;;;5119214;27;20470;-78
2023/09/17 00:09:57;;;;;;;13.82;10.45;;;;;;;;;;5126709;27;20035;-79
2023/09/17 00:12:22;;;;;;;;;;;18.60;99.90;;;;;;5097773;27;20046;-79
2023/09/17 00:14:48;;;;;;;13.15;10.15;;;18.50;99.90;;;;;;5107039;27;19928;-79
2023/09/17 00:17:14;;;;;;;20.77;14.40;;;18.50;99.90;;;;;;5107259;27;20576;-78
2023/09/17 00:19:40;;;;;;;;;;;18.50;99.90;;;;;;5121900;27;20070;-79
2023/09/17 00:22:08;;;;;;;23.77;14.85;;;18.40;99.90;;;;;;5122780;27;19919;-78
2023/09/17 00:24:35;;;;;;;16.33;11.82;;;18.40;99.90;;;;;;5125431;27;20121;-78
2023/09/17 00:27:01;;;;;;;14.63;10.05;;;18.30;99.90;;;;;;5104008;27;20549;-78
2023/09/17 00:29:26;;;;;;;;;;;18.30;99.90;;;;;;5109203;27;20047;-78
2023/09/17 00:31:52;;;;;;;20.52;14.15;;;18.20;99.90;;;;;;5105420;27;20006;-77
2023/09/17 00:34:17;;;;;;;;;;;18.30;99.90;;;;;;5103025;27;20092;-78
2023/09/17 00:36:43;;;;;;;17.27;12.05;;;18.30;99.90;;;;;;5133766;27;20391;-77
2023/09/17 00:39:09;;;;;;;;;;;18.30;99.90;;;;;;5136094;27;20035;-78
2023/09/17 00:41:35;;;;;;;21.52;13.60;;;18.30;99.90;;;;;;5117786;27;19919;-78
2023/09/17 00:44:02;;;;;;;20.85;13.93;;;18.20;99.90;;;;;;5100661;27;20046;-79
2023/09/17 00:46:30;;;;;;;19.95;13.90;;;18.20;99.90;;;;;;5113974;27;20480;-78
2023/09/17 00:48:56;;;;;;;19.95;13.60;;;18.20;99.90;;;;;;5110512;27;20039;-78
2023/09/17 00:51:22;;;;;;;22.08;13.27;;;18.20;99.90;;;;;;5113690;27;20134;-78
2023/09/17 00:53:48;;;;;;;;;;;18.20;99.90;;;;;;5114615;27;20047;-78
2023/09/17 00:56:15;;;;;;;19.08;12.00;;;18.10;99.90;;;;;;5114891;27;19931;-78
2023/09/17 00:58:41;;;;;;;19.15;12.70;;;18.10;99.90;;;;;;5097422;27;20072;-78
2023/09/17 01:01:09;;;;;;;17.73;12.13;;;18.10;99.90;;;;;;5096433;27;20042;-78
2023/09/17 01:03:36;;;;;;;20.90;12.73;;;18.10;99.90;;;;;;5119549;27;20126;-78
2023/09/17 01:06:04;;;;;;;18.73;12.60;;;18.10;99.90;;;;;;5097080;27;20042;-79
2023/09/17 01:08:30;;;;;;;18.55;12.85;;;18.10;99.90;;;;;;5096658;27;20131;-78
2023/09/17 01:10:57;;;;;;;19.45;12.10;;;18.10;99.90;;;;;;5097642;27;20039;-78
2023/09/17 01:13:23;;;;;;;21.80;12.55;;;18.00;99.90;;;;;;5081023;27;20051;-78
2023/09/17 01:15:51;;;;;;;16.60;11.60;;;18.00;99.90;;;;;;5114120;27;20050;-78
2023/09/17 01:18:21;;;;;;;17.65;11.70;;;18.00;99.90;;;;;;5084518;27;20047;-78
2023/09/17 01:21:00;;;;;;;16.83;11.73;;;18.00;99.90;;;;;;5113640;27;20051;-78
2023/09/17 01:23:41;;;;;;;16.15;11.98;;;18.10;99.90;;;;;;5113419;27;20089;-78
2023/09/17 01:26:24;;;;;;;21.45;11.73;;;18.10;99.90;;;;;;5115930;27;20122;-78
2023/09/17 01:28:53;;;;;;;15.23;10.38;;;18.10;99.90;;;;;;5096826;27;20046;-78
2023/09/17 01:31:20;;;;;;;18.77;12.38;;;18.10;99.90;;;;;;5113279;28;20404;-78
2023/09/17 01:33:47;;;;;;;17.10;11.95;;;18.10;99.90;;;;;;5113462;28;20044;-78
2023/09/17 01:36:34;;;;;;;19.98;11.93;;;18.10;99.90;;;;;;5113286;28;20065;-79
2023/09/17 01:39:12;;;;;;;18.38;11.95;;;18.10;99.90;;;;;;5113960;28;20047;-78
2023/09/17 01:41:39;;;;;;;21.73;13.43;;;18.10;99.90;;;;;;5115017;27;20050;-79
2023/09/17 01:44:06;;;;;;;9.75;7.40;;;18.10;99.90;;;;;;5134851;27;20129;-78
2023/09/17 01:46:33;;;;;;;18.42;13.85;;;18.10;99.90;;;;;;5134267;27;20043;-78
2023/09/17 01:48:59;;;;;;;18.00;12.68;;;18.10;99.90;;;;;;5115342;27;20042;-78
2023/09/17 01:51:26;;;;;;;19.90;12.57;;;18.10;99.90;;;;;;5111778;28;20538;-78
2023/09/17 01:53:55;;;;;;;20.77;12.52;;;18.00;99.90;;;;;;5112961;28;20061;-78
2023/09/17 01:56:21;;;;;;;;;;;18.00;99.90;;;;;;5114768;28;20130;-78
2023/09/17 01:58:46;;;;;;;17.60;12.23;;;18.00;99.90;;;;;;5113572;28;20017;-78
2023/09/17 02:01:13;;;;;;;;;;;18.00;99.90;;;;;;5115862;27;20115;-79
2023/09/17 02:03:39;;;;;;;19.80;12.18;;;18.00;99.90;;;;;;5100061;27;20367;-78
2023/09/17 02:06:05;;;;;;;;;;;18.00;99.90;;;;;;5096564;28;20047;-79
2023/09/17 02:08:30;;;;;;;17.30;11.48;;;17.90;99.90;;;;;;5130153;28;20256;-78
2023/09/17 02:10:56;;;;;;;;;;;17.90;99.90;;;;;;5113521;28;20086;-78
2023/09/17 02:13:22;;;;;;;20.60;12.85;;;17.90;99.90;;;;;;5117757;27;19927;-78
2023/09/17 02:15:47;;;;;;;;;;;17.80;99.90;;;;;;5118014;27;20086;-79
2023/09/17 02:18:14;;;;;;;19.83;12.30;;;17.80;99.90;;;;;;5099621;27;19927;-78
2023/09/17 02:20:40;;;;;;;18.13;12.48;;;17.80;99.90;;;;;;5100038;27;20470;-78
2023/09/17 02:23:06;;;;;;;20.83;12.45;;;17.80;99.90;;;;;;5099052;27;20047;-78
2023/09/17 02:25:32;;;;;;;20.17;13.68;;;17.80;99.90;;;;;;5100642;27;20600;-78
2023/09/17 02:27:58;;;;;;;;;;;17.80;99.90;;;;;;5083765;27;20878;-78
2023/09/17 02:30:24;;;;;;;19.15;12.68;;;17.80;99.90;;;;;;5117655;27;19969;-78
2023/09/17 02:32:50;;;;;;;;;;;17.80;99.90;;;;;;5107096;27;20472;-78
2023/09/17 02:35:15;;;;;;;23.45;13.50;;;17.80;99.90;;;;;;5120847;27;19919;-78
2023/09/17 02:37:41;;;;;;;;;;;17.80;99.90;;;;;;5115202;27;20065;-78
2023/09/17 02:40:09;;;;;;;23.38;13.55;;;17.70;99.90;;;;;;5100910;27;19919;-78
2023/09/17 02:42:36;;;;;;;19.30;13.90;;;17.70;99.90;;;;;;5138092;27;20376;-78
2023/09/17 02:45:03;;;;;;;23.27;14.18;;;17.70;99.90;;;;;;5137523;27;20078;-78
2023/09/17 02:47:28;;;;;;;23.80;15.02;;;17.70;99.90;;;;;;5120234;27;20043;-78
2023/09/17 02:49:54;;;;;;;;;;;17.80;99.90;;;;;;5127073;27;20051;-78
2023/09/17 02:52:20;;;;;;;25.63;15.40;;;17.80;99.90;;;;;;5098516;27;19924;-78
2023/09/17 02:54:46;;;;;;;;;;;17.80;99.90;;;;;;5129556;27;20039;-78
2023/09/17 02:57:11;;;;;;;27.67;15.55;;;17.70;99.90;;;;;;5099902;27;19919;-78
2023/09/17 02:59:37;;;;;;;;;;;17.70;99.90;;;;;;5100015;27;20396;-78
2023/09/17 03:02:03;;;;;;;25.67;16.77;;;17.60;99.90;;;;;;5099025;27;20722;-78
2023/09/17 03:04:29;;;;;;;25.85;16.42;;;17.60;99.90;;;;;;5103671;27;20126;-78
2023/09/17 03:06:55;;;;;;;;;;;17.60;99.90;;;;;;5135767;27;20125;-78
2023/09/17 03:09:20;;;;;;;21.63;15.43;;;17.60;99.90;;;;;;5100031;27;19926;-78
2023/09/17 03:11:46;;;;;;;;;;;17.60;99.90;;;;;;5116801;27;20103;-78
2023/09/17 03:14:12;;;;;;;25.00;16.05;;;17.60;99.90;;;;;;5099813;27;19919;-78
2023/09/17 03:16:37;;;;;;;;;;;17.60;99.90;;;;;;5083151;27;20051;-78
2023/09/17 03:19:03;;;;;;;27.67;16.60;;;17.60;99.90;;;;;;5120023;27;20748;-78
2023/09/17 03:21:29;;;;;;;;;;;17.60;99.90;;;;;;5128127;27;20046;-78
2023/09/17 03:23:55;;;;;;;27.30;18.08;;;17.60;99.90;;;;;;5136492;27;19919;-78
2023/09/17 03:26:21;;;;;;;;;;;17.60;99.90;;;;;;5137893;27;20054;-78
2023/09/17 03:28:47;;;;;;;31.48;18.48;;;17.60;99.90;;;;;;5137027;27;19919;-78
2023/09/17 03:31:12;;;;;;;;;;;17.60;99.90;;;;;;5134531;27;20061;-78
2023/09/17 03:33:38;;;;;;;30.25;19.27;;;17.60;99.90;;;;;;5099186;27;20014;-78
2023/09/17 03:36:03;;;;;;;;;;;17.60;99.90;;;;;;5115552;27;20043;-78
2023/09/17 03:38:29;;;;;;;19.08;12.90;;;17.60;99.90;;;;;;5098745;27;19920;-78
2023/09/17 03:40:59;;;;;;;;;;;17.60;99.90;;;;;;5116175;27;20039;-79
2023/09/17 03:43:27;;;;;;;30.20;21.13;;;17.60;99.90;;;;;;5083034;27;19946;-78
2023/09/17 03:45:52;;;;;;;31.88;20.83;;;17.60;99.90;;;;;;5098986;27;20039;-78
2023/09/17 03:48:19;;;;;;;;;;;17.60;99.90;;;;;;5098960;27;20100;-78
2023/09/17 03:50:45;;;;;;;31.15;21.15;;;17.60;99.90;;;;;;5099545;27;20279;-78
2023/09/17 03:53:12;;;;;;;35.97;22.50;;;17.60;99.90;;;;;;5079981;27;20430;-77
2023/09/17 03:55:39;;;;;;;34.92;23.50;;;17.50;99.90;;;;;;5116116;27;20073;-78
2023/09/17 03:58:05;;;;;;;34.20;24.15;;;17.50;99.90;;;;;;5098621;27;20097;-78
2023/09/17 04:00:31;;;;;;;35.45;23.83;;;17.50;99.90;;;;;;5115844;27;20050;-78
2023/09/17 04:02:57;;;;;;;;;;;17.50;99.90;;;;;;5081652;27;20051;-78
2023/09/17 04:05:24;;;;;;;35.05;24.13;;;17.40;99.90;;;;;;5098694;27;20017;-78
2023/09/17 04:07:49;;;;;;;38.45;25.92;;;17.40;99.90;;;;;;5113210;27;20420;-77
2023/09/17 04:10:17;;;;;;;;;;;17.40;99.90;;;;;;5136698;27;20176;-78
2023/09/17 04:12:43;;;;;;;;;;;17.30;99.90;;;;;;5136779;27;20383;-77
2023/09/17 04:15:16;;;;;;;37.25;25.92;;;17.30;99.90;;;;;;5117878;27;19919;-78
2023/09/17 04:17:43;;;;;;;37.70;25.75;;;17.30;99.90;;;;;;5121154;27;20043;-78
2023/09/17 04:20:18;;;;;;;40.05;26.10;;;17.30;99.90;;;;;;5106098;27;20180;-78
2023/09/17 04:22:49;;;;;;;44.88;27.05;;;17.20;99.90;;;;;;5113553;27;20453;-78
2023/09/17 04:25:17;;;;;;;37.80;26.80;;;17.30;99.90;;;;;;5125666;27;20504;-78
2023/09/17 04:27:44;;;;;;;40.40;27.20;;;17.20;99.90;;;;;;5119287;27;20043;-78
2023/09/17 04:30:13;;;;;;;38.17;27.10;;;17.20;99.90;;;;;;5135038;27;20053;-78
2023/09/17 04:32:42;;;;;;;42.28;27.73;;;17.20;99.90;;;;;;5112285;27;20055;-78
2023/09/17 04:35:13;;;;;;;26.00;18.15;;;17.20;99.90;;;;;;5113776;27;20039;-78
2023/09/17 04:37:40;;;;;;;42.55;28.23;;;17.20;99.90;;;;;;5106957;27;20071;-77
2023/09/17 04:40:11;;;;;;;43.60;28.92;;;17.20;99.90;;;;;;5134750;27;20038;-78
2023/09/17 04:42:38;;;;;;;30.83;22.55;;;17.20;99.90;;;;;;5135791;27;20491;-78
2023/09/17 04:45:05;;;;;;;29.83;21.05;;;17.20;99.90;;;;;;5135443;27;20039;-77
2023/09/17 04:47:34;;;;;;;41.53;27.23;;;17.30;99.90;;;;;;5107077;27;20103;-78
2023/09/17 04:50:00;;;;;;;32.50;20.50;;;17.30;99.90;;;;;;5125609;27;20060;-77
2023/09/17 04:52:25;;;;;;;;;;;17.40;99.90;;;;;;5110070;27;20492;-77
2023/09/17 04:54:51;;;;;;;16.27;11.63;;;17.40;99.90;;;;;;5135883;27;19926;-78
2023/09/17 04:57:17;;;;;;;;;;;17.40;99.90;;;;;;5135524;27;20474;-78
2023/09/17 04:59:42;;;;;;;18.15;12.88;;;17.50;99.90;;;;;;5130168;27;19920;-77
2023/09/17 05:02:08;;;;;;;;;;;17.60;99.90;;;;;;5098721;27;20046;-78
2023/09/17 05:04:34;;;;;;;27.95;19.95;;;17.60;99.90;;;;;;5128427;27;19961;-78
2023/09/17 05:06:59;;;;;;;;;;;17.60;99.90;;;;;;5096712;27;20039;-79
2023/09/17 05:09:26;;;;;;;35.50;24.77;;;17.70;99.90;;;;;;5115005;27;19943;-77
2023/09/17 05:11:52;;;;;;;46.95;31.08;;;17.70;99.90;;;;;;5098239;27;20121;-77
2023/09/17 05:14:17;;;;;;;;;;;17.70;99.90;;;;;;5098208;27;20047;-77
2023/09/17 05:16:43;;;;;;;44.70;31.40;;;17.60;99.90;;;;;;5097791;27;19919;-78
2023/09/17 05:19:09;;;;;;;;;;;17.50;99.90;;;;;;5116361;27;20130;-77
2023/09/17 05:21:34;;;;;;;44.40;30.38;;;17.50;99.90;;;;;;5120620;27;20025;-78
2023/09/17 05:24:00;;;;;;;;;;;17.40;99.90;;;;;;5098194;28;20750;-79
2023/09/17 05:26:26;;;;;;;36.33;25.00;;;17.40;99.90;;;;;;5097725;28;19934;-77
2023/09/17 05:28:51;;;;;;;;;;;17.30;99.90;;;;;;5098124;28;20043;-77
2023/09/17 05:31:17;;;;;;;39.85;27.10;;;17.30;99.90;;;;;;5131539;27;20003;-77
2023/09/17 05:33:43;;;;;;;;;;;17.30;99.90;;;;;;5134908;27;20059;-77
2023/09/17 05:36:09;;;;;;;45.25;29.05;;;17.40;99.90;;;;;;5123896;28;19920;-77
2023/09/17 05:38:35;;;;;;;;;;;17.50;99.90;;;;;;5114822;28;20047;-77
2023/09/17 05:41:01;;;;;;;31.17;22.83;;;17.50;99.90;;;;;;5099440;27;20400;-77
2023/09/17 05:43:26;;;;;;;29.33;20.48;;;17.50;99.90;;;;;;5100759;27;20047;-77
2023/09/17 05:45:56;;;;;;;;;;;17.60;99.90;;;;;;5116842;27;20045;-77
2023/09/17 05:48:25;;;;;;;49.67;32.78;;;17.60;99.90;;;;;;5084784;27;19973;-77
2023/09/17 05:50:52;;;;;;;47.47;32.63;;;17.60;99.90;;;;;;5119008;27;20368;-77
2023/09/17 05:53:18;;;;;;;47.10;31.60;;;17.60;99.90;;;;;;5118572;27;20039;-77
2023/09/17 05:55:44;;;;;;;48.28;32.35;;;17.60;99.90;;;;;;5122077;27;20368;-77
2023/09/17 05:58:10;;;;;;;;;;;17.60;99.90;;;;;;5139162;27;20095;-77
2023/09/17 06:00:36;;;;;;;44.30;30.63;;;17.50;99.90;;;;;;5121494;27;19919;-77
2023/09/17 06:03:01;;;;;;;;;;;17.50;99.90;;;;;;5139125;27;20046;-77
2023/09/17 06:05:27;;;;;;;42.00;27.60;;;17.50;99.90;;;;;;5121422;27;19918;-77
2023/09/17 06:07:54;;;;;;;;;;;17.50;99.90;;;;;;5113402;27;20126;-77
2023/09/17 06:10:20;;;;;;;46.38;31.23;;;17.50;99.90;;;;;;5117776;27;19923;-77
2023/09/17 06:12:45;;;;;;;;;;;17.50;99.90;;;;;;5101668;27;20487;-77
2023/09/17 06:15:11;;;;;;;28.02;18.38;;;17.50;99.90;;;;;;5100730;27;20391;-77
2023/09/17 06:17:36;;;;;;;;;;;17.50;99.90;;;;;;5118107;27;20039;-77
2023/09/17 06:20:02;;;;;;;40.60;28.02;;;17.60;99.90;;;;;;5118060;27;19972;-77
2023/09/17 06:22:28;;;;;;;33.80;23.13;;;17.60;99.90;;;;;;5115919;27;20043;-77
2023/09/17 06:24:54;;;;;;;;;;;17.60;99.90;;;;;;5101704;27;20365;-77
2023/09/17 06:27:21;;;;;;;31.70;23.75;;;17.60;99.90;;;;;;5117450;27;19931;-77
2023/09/17 06:29:46;;;;;;;27.65;19.05;;;17.60;99.90;;;;;;5100956;27;20091;-77
2023/09/17 06:32:12;;;;;;;;;;;17.60;99.90;;;;;;5100030;27;20684;-77
2023/09/17 06:34:38;;;;;;;49.67;34.17;;;17.70;99.90;;;;;;5117697;27;19927;-77
2023/09/17 06:37:04;;;;;;;;;;;17.80;99.90;;;;;;5120903;27;20038;-78
2023/09/17 06:39:30;;;;;;;42.03;27.60;;;;;;;;;;5117252;27;19919;-77
2023/09/17 06:41:56;;;;;;;;;;;;;;;;;;5118200;27;20330;-77
2023/09/17 06:44:23;;;;;;;44.75;29.35;;;;;;;;;;5117295;27;20356;-77
2023/09/17 06:46:49;;;;;;;56.28;37.80;;;;;;;;;;5120538;27;20050;-77
2023/09/17 06:49:16;;;;;;;57.75;39.00;;;;;;;;;;5136576;27;20095;-78
2023/09/17 06:51:42;;;;;;;51.92;35.70;;;;;;;;;;5098967;27;20050;-77
2023/09/17 06:54:08;;;;;;;;;;;;;;;;;;5135091;27;20049;-77
2023/09/17 06:56:34;;;;;;;35.70;23.80;;;;;;;;;;5129746;27;19919;-77
2023/09/17 06:59:00;;;;;;;38.13;27.55;;;;;;;;;;5116561;27;20497;-77
2023/09/17 07:01:26;;;;;;;;;;;;;;;;;;5109115;27;20060;-77
2023/09/17 07:03:52;;;;;;;38.90;28.33;;;;;;;;;;5115629;27;19926;-77
2023/09/17 07:06:19;;;;;;;44.22;31.85;;;;;;;;;;5108546;27;20045;-77
2023/09/17 07:08:45;;;;;;;39.22;27.60;;;;;;;;;;5117056;27;20086;-74
2023/09/17 07:11:11;;;;;;;59.13;39.33;;;;;;;;;;5117363;27;20142;-76
2023/09/17 07:13:38;;;;;;;;;;;;;;;;;;5112122;27;20051;-76
2023/09/17 07:16:05;;;;;;;33.22;25.15;;;;;;;;;;5117498;27;20408;-77
2023/09/17 07:18:31;;;;;;;41.17;28.50;;;;;;;;;;5141721;27;20042;-77
2023/09/17 07:20:58;;;;;;;33.58;23.25;;;;;;;;;;5113524;27;20121;-80
2023/09/17 07:23:24;;;;;;;36.28;24.98;;;;;;;;;;5137246;27;20045;-79
2023/09/17 07:25:50;;;;;;;43.70;31.15;;;;;;;;;;5138687;27;20046;-76
2023/09/17 07:28:18;;;;;;;32.60;24.27;;;;;;;;;;5121295;27;20067;-78
2023/09/17 07:30:45;;;;;;;35.15;25.23;;;;;;;;;;5138024;27;20055;-79
2023/09/17 07:33:12;;;;;;;39.38;27.65;;;;;;;;;;5137832;27;20047;-78
2023/09/17 07:35:39;;;;;;;50.55;34.65;;;;;;;;;;5120222;27;20047;-78
2023/09/17 07:38:05;;;;;;;30.33;22.52;;;;;;;;;;5136102;27;20505;-78
2023/09/17 07:40:31;;;;;;;42.55;30.00;;;;;;;;;;5102552;27;20495;-77
2023/09/17 07:42:57;;;;;;;34.55;25.30;;;;;;;;;;5103305;27;20043;-68
2023/09/17 07:45:23;;;;;;;;;;;;;;;;;;5155111;27;20050;-68
2023/09/17 07:47:49;;;;;;;37.45;26.27;;;;;;;;;;5150552;27;20364;-68
2023/09/17 07:50:15;;;;;;;;;;;;;;;;;;5144542;27;20050;-69
2023/09/17 07:52:42;;;;;;;38.85;24.75;;;;;;;;;;5114830;27;19919;-69
2023/09/17 07:55:08;;;;;;;22.38;16.65;;;;;;;;;;5134788;27;20054;-69
2023/09/17 07:57:34;;;;;;;48.17;32.95;;;;;;;;;;5134001;27;20550;-69
2023/09/17 08:00:01;;;;;;;36.40;27.52;;;;;;;;;;5116432;27;20043;-69
2023/09/17 08:02:27;;;;;;;23.65;18.27;;;;;;;;;;5115483;27;20092;-68
2023/09/17 08:04:53;;;;;;;45.90;32.33;;;;;;;;;;5147634;27;20046;-71
2023/09/17 08:07:19;;;;;;;45.30;31.05;;;;;;;;;;5129109;27;20121;-81
2023/09/17 08:09:45;;;;;;;46.63;32.08;;;;;;;;;;5124199;27;20047;-74
2023/09/17 08:12:11;;;;;;;;;;;;;;;;;;5116706;27;20448;-74
2023/09/17 08:14:37;;;;;;;27.23;18.92;;;;;;;;;;5123546;27;19920;-76
2023/09/17 08:17:04;;;;;;;35.00;25.60;;;;;;;;;;5134951;27;20483;-74
2023/09/17 08:19:32;;;;;;;29.88;22.42;;;;;;;;;;5109860;27;20054;-74
2023/09/17 08:21:58;;;;;;;29.60;23.38;;;;;;;;;;5125830;27;20491;-76
2023/09/17 08:24:25;;;;;;;30.05;21.95;;;;;;;;;;5120493;27;20122;-75
2023/09/17 08:26:54;;;;;;;41.47;29.50;;;;;;;;;;5112848;27;20129;-76
2023/09/17 08:29:20;;;;;;;41.47;29.35;;;;;;;;;;5103574;27;20070;-76
2023/09/17 08:31:47;;;;;;;23.15;17.73;;;;;;;;;;5110274;27;20058;-76
2023/09/17 08:34:13;;;;;;;42.65;32.45;;;;;;;;;;5126995;27;20038;-76
2023/09/17 08:36:40;;;;;;;40.55;29.50;;;;;;;;;;5119354;27;20055;-76
2023/09/17 08:39:08;;;;;;;34.53;26.08;;;;;;;;;;5121149;27;20035;-77
2023/09/17 08:41:38;;;;;;;22.08;17.33;;;;;;;;;;5116731;27;20507;-77
2023/09/17 08:44:05;;;;;;;38.30;28.40;;;;;;;;;;5135038;27;20055;-76
2023/09/17 08:46:31;;;;;;;26.15;19.27;;;;;;;;;;5116403;27;20050;-76
2023/09/17 08:48:58;;;;;;;24.13;18.38;;;;;;;;;;5132404;27;20047;-75
2023/09/17 08:51:24;;;;;;;36.97;26.63;;;;;;;;;;5112789;27;20126;-78
2023/09/17 08:53:57;;;;;;;36.25;25.58;;;;;;;;;;5130377;27;20038;-76
2023/09/17 08:56:23;;;;;;;36.20;26.83;;;;;;;;;;5109146;27;20050;-75
2023/09/17 08:58:53;;;;;;;34.72;25.50;;;;;;;;;;5126839;27;20118;-75
2023/09/17 09:01:22;;;;;;;38.78;26.30;;;;;;;;;;5102871;27;20396;-76
2023/09/17 09:03:49;;;;;;;35.83;26.52;;;;;;;;;;5100431;27;20122;-76
2023/09/17 09:06:16;;;;;;;37.65;27.70;;;;;;;;;;5104650;27;20047;-73
2023/09/17 09:08:43;;;;;;;30.15;21.80;;;;;;;;;;5129939;27;20039;-77
2023/09/17 09:11:09;;;;;;;41.40;28.00;;;;;;;;;;5115743;27;20039;-76
2023/09/17 09:13:38;;;;;;;33.50;23.20;;;;;;;;;;5130092;27;20424;-76
2023/09/17 09:16:04;;;;;;;35.80;25.77;;;;;;;;;;5106306;27;20119;-76
2023/09/17 09:18:30;;;;;;;35.33;25.63;;;;;;;;;;5126154;27;20042;-76
2023/09/17 09:20:56;;;;;;;;;;;;;;;;;;5120202;27;20039;-76
2023/09/17 09:23:23;;;;;;;39.53;24.05;;;;;;;;;;5115668;27;19919;-76
2023/09/17 09:25:49;;;;;;;20.48;14.75;;;;;;;;;;5127744;27;20039;-76
2023/09/17 09:28:15;;;;;;;29.55;21.52;;;;;;;;;;5128986;27;20090;-75
2023/09/17 09:30:45;;;;;;;34.08;24.48;;;;;;;;;;5107333;28;20508;-79
2023/09/17 09:33:12;;;;;;;32.47;22.85;;;;;;;;;;5122957;27;20107;-78
2023/09/17 09:35:39;;;;;;;36.15;25.00;;;;;;;;;;5116749;27;20070;-76
2023/09/17 09:38:05;;;;;;;24.08;17.98;;;;;;;;;;5123288;27;20087;-78
2023/09/17 09:40:34;;;;;;;39.38;26.08;;;;;;;;;;5123709;28;20079;-77
2023/09/17 09:43:01;;;;;;;26.48;19.83;;;;;;;;;;5120577;27;20043;-78
2023/09/17 09:45:28;;;;;;;23.83;17.50;;;;;;;;;;5128977;28;20089;-78
2023/09/17 09:47:54;;;;;;;43.40;26.98;;;;;;;;;;5138283;27;20075;-77
2023/09/17 09:50:27;;;;;;;30.17;22.05;;;;;;;;;;5132263;27;20062;-78
2023/09/17 09:52:54;;;;;;;18.60;13.60;;;;;;;;;;5119963;27;20057;-78
2023/09/17 09:55:30;;;;;;;20.38;14.82;;;;;;;;;;5130262;27;20491;-79
2023/09/17 09:57:56;;;;;;;19.65;14.10;;;;;;;;;;5152262;27;20134;-78
2023/09/17 10:00:26;;;;;;;37.22;26.15;;;;;;;;;;5129062;27;20472;-78
2023/09/17 10:02:53;;;;;;;41.83;26.50;;;;;;;;;;5149027;27;20047;-78
2023/09/17 10:05:31;;;;;;;29.90;20.45;;;;;;;;;;5124875;27;20071;-77
2023/09/17 10:07:57;;;;;;;30.85;21.15;;;;;;;;;;5138052;27;20043;-77
2023/09/17 10:10:24;;;;;;;19.35;13.57;;;;;;;;;;5136490;27;20039;-76
2023/09/17 10:12:52;;;;;;;20.42;14.35;;;;;;;;;;5134039;27;20403;-78
2023/09/17 10:15:19;;;;;;;27.17;18.83;;;;;;;;;;5117865;27;20472;-72
2023/09/17 10:17:46;;;;;;;16.30;12.52;;;;;;;;;;5136110;27;20047;-71
2023/09/17 10:20:14;;;;;;;22.52;16.05;;;;;;;;;;5145793;27;20035;-71
2023/09/17 10:22:41;;;;;;;21.83;15.95;;;;;;;;;;5147197;27;20046;-72
2023/09/17 10:25:09;;;;;;;31.45;21.60;;;;;;;;;;5137132;27;20043;-71
2023/09/17 10:27:37;;;;;;;32.60;22.92;;;;;;;;;;5118558;28;20523;-74
2023/09/17 10:30:04;;;;;;;18.05;13.27;;;;;;;;;;5148151;27;20050;-73
2023/09/17 10:32:35;;;;;;;33.85;23.38;;;;;;;;;;5144108;27;20059;-71
2023/09/17 10:35:03;;;;;;;35.42;24.70;;;;;;;;;;5120714;27;20081;-71
2023/09/17 10:37:31;;;;;;;36.55;23.95;;;;;;;;;;5155330;27;20047;-73
2023/09/17 10:39:58;;;;;;;27.80;19.67;;;;;;;;;;5116917;27;20164;-75
2023/09/17 10:42:26;;;;;;;32.65;20.60;;;;;;;;;;5129117;27;20042;-71
2023/09/17 10:44:54;;;;;;;27.77;16.63;;;;;;;;;;5152908;27;20491;-71
2023/09/17 10:47:21;;;;;;;36.03;24.15;;;;;;;;;;5143803;27;20205;-71
2023/09/17 10:49:47;;;;;;;25.02;17.13;;;;;;;;;;5147564;27;20074;-71
2023/09/17 10:52:14;;;;;;;37.67;27.17;;;;;;;;;;5142740;27;20042;-71
2023/09/17 10:54:40;;;;;;;40.30;27.65;;;;;;;;;;5141332;27;20074;-71
2023/09/17 10:57:16;;;;;;;42.22;28.00;;;;;;;;;;5141793;27;20086;-72
2023/09/17 10:59:42;;;;;;;39.92;27.85;;;;;;;;;;5118460;27;20092;-73
2023/09/17 11:02:10;;;;;;;45.53;28.15;;;;;;;;;;5135004;27;20054;-72
2023/09/17 11:04:37;;;;;;;41.90;28.17;;;;;;;;;;5152976;27;20768;-75
2023/09/17 11:07:06;;;;;;;25.10;17.90;;;;;;;;;;5134501;27;20058;-71
2023/09/17 11:09:33;;;;;;;28.67;19.75;;;;;;;;;;5141582;27;20111;-72
2023/09/17 11:11:59;;;;;;;27.75;19.58;;;;;;;;;;5145051;27;20050;-72
2023/09/17 11:14:25;;;;;;;28.27;19.65;;;;;;;;;;5153190;27;20047;-72
2023/09/17 11:16:51;;;;;;;32.88;22.83;;;;;;;;;;5122166;27;20039;-72
2023/09/17 11:19:19;;;;;;;31.98;23.00;;;;;;;;;;5150747;27;20049;-72
2023/09/17 11:22:07;;;;;;;23.33;15.43;;;;;;;;;;5118932;27;20051;-72
2023/09/17 11:24:33;;;;;;;21.27;15.77;;;;;;;;;;5152020;27;20126;-72
2023/09/17 11:27:08;;;;;;;13.32;9.32;;;;;;;;;;5149958;27;20039;-72
2023/09/17 11:29:44;;;;;;;19.23;13.27;;;;;;;;;;5128002;27;20055;-72
2023/09/17 11:32:11;;;;;;;29.15;19.52;;;;;;;;;;5146269;27;20584;-72
2023/09/17 11:34:39;;;;;;;15.55;11.38;;;;;;;;;;5145618;27;20042;-72
2023/09/17 11:37:06;;;;;;;19.65;13.40;;;;;;;;;;5151650;27;20054;-71
2023/09/17 11:39:36;;;;;;;19.90;13.70;;;;;;;;;;5144909;27;20121;-75
2023/09/17 11:42:03;;;;;;;23.85;16.95;;;;;;;;;;5129229;27;20171;-76
2023/09/17 11:44:33;;;;;;;23.08;16.13;;;;;;;;;;5110622;27;20054;-75
2023/09/17 11:47:00;;;;;;;30.45;20.10;;;;;;;;;;5150083;27;20045;-78
2023/09/17 11:49:27;;;;;;;22.77;16.40;;;;;;;;;;5130785;27;20043;-78
2023/09/17 11:51:56;;;;;;;19.80;14.32;;;;;;;;;;5146128;27;20046;-78
2023/09/17 11:54:25;;;;;;;16.65;12.90;;;;;;;;;;5132926;27;20065;-79
2023/09/17 11:56:53;;;;;;;20.95;16.02;;;;;;;;;;5129767;27;20043;-78
2023/09/17 11:59:20;;;;;;;18.58;13.85;;;;;;;;;;5138823;27;20122;-79
2023/09/17 12:01:48;;;;;;;20.98;14.55;;;;;;;;;;5122737;27;20153;-77
2023/09/17 12:04:15;;;;;;;28.17;21.13;;;;;;;;;;5132424;27;20084;-78
2023/09/17 12:06:50;;;;;;;27.48;20.00;;;;;;;;;;5154157;27;20046;-78
2023/09/17 12:09:23;;;;;;;16.08;12.38;;;;;;;;;;5143356;27;20430;-78
2023/09/17 12:11:49;;;;;;;27.40;19.88;;;;;;;;;;5143117;27;20051;-78
2023/09/17 12:14:16;;;;;;;24.73;18.83;;;;;;;;;;5145294;27;20043;-73
2023/09/17 12:16:43;;;;;;;18.02;12.80;;;;;;;;;;5122939;27;20096;-73
2023/09/17 12:19:09;;;;;;;29.38;22.70;;;;;;;;;;5144112;27;20039;-77
2023/09/17 12:21:39;;;;;;;27.58;19.98;;;;;;;;;;5103348;27;20087;-77
2023/09/17 12:24:08;;;;;;;24.25;17.50;;;;;;;;;;5125370;27;20790;-77
2023/09/17 12:26:47;;;;;;;30.85;22.80;;;;;;;;;;5125280;27;20496;-78
2023/09/17 12:29:14;;;;;;;33.50;22.90;;;;;;;;;;5126581;27;20051;-77
2023/09/17 12:31:41;;;;;;;24.67;17.38;;;;;;;;;;5123140;27;20040;-77
2023/09/17 12:34:07;;;;;;;26.00;19.63;;;;;;;;;;5116526;27;20043;-78
2023/09/17 12:36:33;;;;;;;32.90;23.20;;;;;;;;;;5122428;27;20084;-76
2023/09/17 12:39:00;;;;;;;34.15;23.00;;;;;;;;;;5124160;27;20035;-78
2023/09/17 12:41:27;;;;;;;23.45;16.77;;;;;;;;;;5107492;27;20039;-76
2023/09/17 12:43:53;;;;;;;30.90;21.13;;;;;;;;;;5123994;27;20100;-76
2023/09/17 12:46:19;;;;;;;32.13;24.10;;;;;;;;;;5107702;27;20500;-76
2023/09/17 12:48:45;;;;;;;33.67;23.95;;;;;;;;;;5122555;27;20430;-78
2023/09/17 12:51:12;;;;;;;36.08;25.92;;;;;;;;;;5137398;27;20039;-77
2023/09/17 12:53:39;;;;;;;35.25;25.55;;;;;;;;;;5106342;27;20043;-77
2023/09/17 12:56:06;;;;;;;34.10;25.25;;;;;;;;;;5110755;27;20042;-76
2023/09/17 12:58:32;;;;;;;33.40;25.58;;;;;;;;;;5121703;27;20091;-76
2023/09/17 13:01:11;;;;;;;33.03;25.13;;;;;;;;;;5120427;27;20092;-77
2023/09/17 13:03:50;;;;;;;35.65;25.63;;;;;;;;;;5124005;27;20043;-77
2023/09/17 13:06:18;;;;;;;36.67;25.80;;;;;;;;;;5117508;27;20038;-77
2023/09/17 13:08:44;;;;;;;31.65;23.88;;;;;;;;;;5116899;27;20511;-77
2023/09/17 13:11:10;;;;;;;31.52;23.88;;;;;;;;;;5108963;27;20042;-77
2023/09/17 13:13:37;;;;;;;32.22;23.77;;;;;;;;;;5126031;27;20070;-77
2023/09/17 13:16:03;;;;;;;33.08;24.33;;;;;;;;;;5105240;27;20038;-77
2023/09/17 13:18:29;;;;;;;31.90;24.00;;;;;;;;;;5111543;27;20496;-77
2023/09/17 13:20:55;;;;;;;31.42;23.92;;;;;;;;;;5103068;27;20046;-78
2023/09/17 13:23:22;;;;;;;33.13;24.55;;;;;;;;;;5122941;27;20134;-78
2023/09/17 13:25:52;;;;;;;31.05;25.02;;;;;;;;;;5099823;27;20035;-79
2023/09/17 13:28:19;;;;;;;33.25;23.92;;;;;;;;;;5123742;27;20043;-77
2023/09/17 13:30:46;;;;;;;33.50;24.48;;;;;;;;;;5126651;27;20046;-78
2023/09/17 13:33:16;;;;;;;33.40;25.45;;;;;;;;;;5119472;27;20051;-77
2023/09/17 13:35:43;;;;;;;35.45;25.98;;;;;;;;;;5101432;28;20096;-77
2023/09/17 13:38:13;;;;;;;30.08;23.85;;;;;;;;;;5121353;28;20039;-77